createdAt,value
2023-02-02T00:02:02.731Z,84.14
2023-02-02T00:04:34.853Z,83.94
2023-02-02T00:07:02.907Z,83.25
2023-02-02T00:09:31.355Z,83.34
2023-02-02T00:11:58.895Z,83.00
2023-02-02T00:14:25.606Z,82.47
2023-02-02T00:16:56.224Z,82.55
2023-02-02T00:19:30.331Z,83.12
2023-02-02T00:21:57.442Z,83.68
2023-02-02T00:24:24.277Z,84.18
2023-02-02T00:26:56.156Z,84.78
2023-02-02T00:29:25.038Z,84.60
2023-02-02T00:31:52.116Z,84.35
2023-02-02T00:34:19.139Z,84.36
2023-02-02T00:36:47.376Z,83.97
2023-02-02T00:39:20.790Z,84.00
2023-02-02T00:41:48.179Z,84.20
2023-02-02T00:44:33.691Z,84.15
2023-02-02T00:47:00.493Z,84.01
2023-02-02T00:49:27.275Z,84.77
2023-02-02T00:51:53.969Z,84.46
2023-02-02T00:54:20.817Z,84.77
2023-02-02T00:56:47.758Z,84.90
2023-02-02T00:59:14.417Z,85.19
2023-02-02T01:01:41.143Z,85.45
2023-02-02T01:04:08.010Z,86.13
2023-02-02T01:06:35.092Z,85.63
2023-02-02T01:09:01.950Z,86.63
2023-02-02T01:11:28.724Z,85.76
2023-02-02T01:13:55.365Z,86.64
2023-02-02T01:16:25.262Z,86.73
2023-02-02T01:18:52.575Z,86.16
2023-02-02T01:21:19.415Z,86.37
2023-02-02T01:23:46.206Z,86.70
2023-02-02T01:26:16.127Z,86.85
2023-02-02T01:28:42.913Z,87.48
2023-02-02T01:31:18.201Z,88.73
2023-02-02T01:33:46.234Z,87.49
2023-02-02T01:36:15.525Z,88.14
2023-02-02T01:38:43.136Z,87.55
2023-02-02T01:41:13.931Z,87.73
2023-02-02T01:43:44.120Z,87.91
2023-02-02T01:46:25.417Z,89.41
2023-02-02T01:49:03.266Z,89.07
2023-02-02T01:51:35.477Z,88.72
2023-02-02T01:54:03.272Z,88.75
2023-02-02T01:56:34.433Z,88.86
2023-02-02T01:59:01.433Z,88.66
2023-02-02T02:01:28.156Z,88.78
2023-02-02T02:03:55.703Z,88.57
2023-02-02T02:06:25.718Z,88.91
2023-02-02T02:09:00.260Z,89.43
2023-02-02T02:11:27.518Z,89.01
2023-02-02T02:14:15.058Z,89.35
2023-02-02T02:17:00.247Z,89.79
2023-02-02T02:19:36.484Z,88.96
2023-02-02T02:22:32.730Z,89.67
2023-02-02T02:25:41.837Z,90.15
2023-02-02T02:28:19.396Z,89.19
2023-02-02T02:31:11.171Z,90.48
2023-02-02T02:34:00.222Z,90.99
2023-02-02T02:36:50.090Z,90.15
2023-02-02T02:39:23.437Z,89.81
2023-02-02T02:41:53.869Z,90.87
2023-02-02T02:44:22.229Z,89.39
2023-02-02T02:46:49.691Z,89.69
2023-02-02T02:49:17.553Z,89.98
2023-02-02T02:51:52.202Z,90.95
2023-02-02T02:54:34.632Z,91.50
2023-02-02T02:57:32.625Z,91.62
2023-02-02T03:00:14.266Z,90.70
2023-02-02T03:02:49.230Z,90.56
2023-02-02T03:05:47.049Z,91.31
2023-02-02T03:08:40.761Z,91.19
2023-02-02T03:11:10.772Z,90.73
2023-02-02T03:13:37.540Z,90.11
2023-02-02T03:16:04.558Z,90.60
2023-02-02T03:18:33.023Z,90.89
2023-02-02T03:20:59.968Z,90.95
2023-02-02T03:23:26.746Z,91.13
2023-02-02T03:25:54.275Z,91.08
2023-02-02T03:28:23.486Z,90.25
2023-02-02T03:30:51.434Z,90.38
2023-02-02T03:33:18.704Z,90.04
2023-02-02T03:35:46.089Z,91.31
2023-02-02T03:38:12.977Z,91.59
2023-02-02T03:40:40.066Z,90.75
2023-02-02T03:43:06.798Z,91.26
2023-02-02T03:45:35.479Z,91.38
2023-02-02T03:48:05.849Z,91.27
2023-02-02T03:50:33.229Z,91.46
2023-02-02T03:53:00.266Z,91.33
2023-02-02T03:55:27.054Z,91.58
2023-02-02T03:57:53.770Z,91.31
2023-02-02T04:00:21.237Z,90.96
2023-02-02T04:02:47.925Z,91.71
2023-02-02T04:05:14.744Z,91.21
2023-02-02T04:07:41.449Z,91.09
2023-02-02T04:10:08.861Z,90.98
2023-02-02T04:12:35.522Z,90.62
2023-02-02T04:15:02.280Z,90.93
2023-02-02T04:17:28.989Z,91.15
2023-02-02T04:19:58.333Z,91.15
2023-02-02T04:22:25.711Z,91.16
2023-02-02T04:24:52.534Z,91.08
2023-02-02T04:27:19.918Z,91.77
2023-02-02T04:29:46.688Z,91.56
2023-02-02T04:32:18.324Z,91.71
2023-02-02T04:34:45.242Z,91.83
2023-02-02T04:37:12.027Z,91.10
2023-02-02T04:39:38.756Z,91.33
2023-02-02T04:42:05.461Z,91.65
2023-02-02T04:44:32.191Z,92.19
2023-02-02T04:46:59.220Z,92.51
2023-02-02T04:49:25.939Z,93.09
2023-02-02T04:51:52.678Z,92.30
2023-02-02T04:54:19.458Z,92.38
2023-02-02T04:56:46.098Z,92.33
2023-02-02T04:59:12.839Z,92.61
2023-02-02T05:01:39.592Z,91.98
2023-02-02T05:04:06.467Z,92.11
2023-02-02T05:06:33.218Z,92.26
2023-02-02T05:09:01.147Z,92.47
2023-02-02T05:11:27.981Z,92.07
2023-02-02T05:13:55.251Z,92.46
2023-02-02T05:16:23.282Z,92.11
2023-02-02T05:18:51.416Z,92.00
2023-02-02T05:21:18.380Z,91.93
2023-02-02T05:23:45.087Z,92.05
2023-02-02T05:26:15.636Z,91.87
2023-02-02T05:28:42.878Z,91.94
2023-02-02T05:31:09.979Z,91.86
2023-02-02T05:33:37.131Z,92.03
2023-02-02T05:36:04.384Z,92.11
2023-02-02T05:38:31.324Z,92.02
2023-02-02T05:40:58.010Z,91.91
2023-02-02T05:43:29.142Z,92.03
2023-02-02T05:45:55.959Z,92.16
2023-02-02T05:48:22.777Z,91.82
2023-02-02T05:51:12.502Z,92.16
2023-02-02T05:53:39.172Z,91.78
2023-02-02T05:56:06.002Z,91.85
2023-02-02T05:58:32.913Z,91.89
2023-02-02T06:00:59.608Z,92.00
2023-02-02T06:03:26.416Z,92.03
2023-02-02T06:05:53.185Z,92.08
2023-02-02T06:08:19.853Z,92.12
2023-02-02T06:10:46.577Z,91.64
2023-02-02T06:13:13.249Z,91.58
2023-02-02T06:15:42.143Z,91.97
2023-02-02T06:18:09.564Z,91.51
2023-02-02T06:20:36.523Z,91.57
2023-02-02T06:23:05.062Z,91.84
2023-02-02T06:25:31.768Z,92.17
2023-02-02T06:27:59.481Z,91.83
2023-02-02T06:30:26.780Z,92.06
2023-02-02T06:32:53.813Z,91.76
2023-02-02T06:35:20.547Z,92.43
2023-02-02T06:37:47.267Z,92.25
2023-02-02T06:40:13.882Z,92.05
2023-02-02T06:42:40.930Z,92.29
2023-02-02T06:45:08.165Z,92.50
2023-02-02T06:47:34.898Z,92.22
2023-02-02T06:50:01.615Z,92.28
2023-02-02T06:52:28.339Z,92.17
2023-02-02T06:54:55.261Z,92.14
2023-02-02T06:57:22.025Z,92.05
2023-02-02T06:59:48.742Z,92.05
2023-02-02T07:02:15.593Z,92.53
2023-02-02T07:04:42.414Z,92.53
2023-02-02T07:07:09.054Z,92.65
2023-02-02T07:09:35.876Z,92.37
2023-02-02T07:12:02.640Z,92.36
2023-02-02T07:14:29.330Z,92.34
2023-02-02T07:16:56.075Z,92.26
2023-02-02T07:19:22.752Z,92.16
2023-02-02T07:21:49.499Z,92.07
2023-02-02T07:24:16.130Z,92.27
2023-02-02T07:26:42.882Z,92.40
2023-02-02T07:29:13.105Z,92.28
2023-02-02T07:31:40.442Z,92.48
2023-02-02T07:34:07.139Z,92.26
2023-02-02T07:36:33.974Z,92.60
2023-02-02T07:39:03.863Z,92.44
2023-02-02T07:41:31.195Z,92.32
2023-02-02T07:43:57.926Z,92.42
2023-02-02T07:46:24.659Z,92.46
2023-02-02T07:48:56.945Z,92.50
2023-02-02T07:51:24.648Z,92.59
2023-02-02T07:53:53.433Z,92.16
2023-02-02T07:56:22.954Z,92.50
2023-02-02T07:58:52.177Z,92.15
2023-02-02T08:01:20.675Z,92.32
2023-02-02T08:03:47.480Z,92.62
2023-02-02T08:06:25.711Z,92.45
2023-02-02T08:08:52.697Z,92.45
2023-02-02T08:11:20.795Z,92.17
2023-02-02T08:13:52.341Z,92.36
2023-02-02T08:16:19.712Z,92.38
2023-02-02T08:18:46.883Z,91.75
2023-02-02T08:21:13.840Z,91.69
2023-02-02T08:23:41.583Z,92.09
2023-02-02T08:26:17.903Z,92.18
2023-02-02T08:28:46.876Z,92.29
2023-02-02T08:31:17.633Z,92.07
2023-02-02T08:33:44.361Z,92.15
2023-02-02T08:36:13.127Z,92.07
2023-02-02T08:38:39.876Z,92.16
2023-02-02T08:41:08.190Z,92.65
2023-02-02T08:43:35.648Z,92.39
2023-02-02T08:46:05.577Z,92.31
2023-02-02T08:48:34.032Z,92.20
2023-02-02T08:51:01.008Z,91.92
2023-02-02T08:53:27.973Z,92.26
2023-02-02T08:56:02.604Z,92.36
2023-02-02T08:58:29.454Z,92.29
2023-02-02T09:01:23.942Z,92.51
2023-02-02T09:03:58.780Z,92.43
2023-02-02T09:06:31.047Z,92.98
2023-02-02T09:08:57.713Z,92.59
2023-02-02T09:11:24.899Z,92.28
2023-02-02T09:13:55.839Z,92.17
2023-02-02T09:16:23.432Z,92.45
2023-02-02T09:18:50.253Z,92.18
2023-02-02T09:21:18.404Z,91.99
2023-02-02T09:23:46.561Z,92.18
2023-02-02T09:26:27.224Z,92.26
2023-02-02T09:28:59.078Z,92.16
2023-02-02T09:31:26.166Z,92.13
2023-02-02T09:33:53.093Z,92.35
2023-02-02T09:36:21.744Z,91.79
2023-02-02T09:38:49.685Z,91.96
2023-02-02T09:41:54.561Z,91.97
2023-02-02T09:44:36.296Z,91.70
2023-02-02T09:47:20.513Z,91.82
2023-02-02T09:49:53.782Z,91.73
2023-02-02T09:52:35.315Z,92.17
2023-02-02T09:55:12.357Z,91.51
2023-02-02T09:57:47.305Z,91.76
2023-02-02T10:00:28.085Z,91.58
2023-02-02T10:03:01.880Z,91.57
2023-02-02T10:05:36.782Z,91.65
2023-02-02T10:08:07.767Z,91.67
2023-02-02T10:10:40.204Z,91.50
2023-02-02T10:13:16.209Z,91.48
2023-02-02T10:15:52.493Z,91.13
2023-02-02T10:18:38.043Z,91.50
2023-02-02T10:21:08.957Z,91.02
2023-02-02T10:23:41.259Z,90.95
2023-02-02T10:26:19.034Z,91.16
2023-02-02T10:29:12.034Z,91.03
2023-02-02T10:31:41.766Z,91.18
2023-02-02T10:34:15.729Z,91.10
2023-02-02T10:37:05.143Z,90.99
2023-02-02T10:39:55.037Z,91.05
2023-02-02T10:43:11.149Z,90.59
2023-02-02T10:45:39.291Z,90.45
2023-02-02T10:48:14.867Z,90.52
2023-02-02T10:50:44.358Z,90.35
2023-02-02T10:53:14.116Z,90.40
2023-02-02T10:55:56.840Z,89.97
2023-02-02T10:58:30.388Z,90.21
2023-02-02T11:00:58.880Z,90.24
2023-02-02T11:03:28.507Z,90.10
2023-02-02T11:06:15.816Z,90.06
2023-02-02T11:08:47.529Z,90.14
2023-02-02T11:11:23.833Z,90.06
2023-02-02T11:13:58.221Z,90.22
2023-02-02T11:16:38.826Z,90.34
2023-02-02T11:19:18.118Z,90.28
2023-02-02T11:21:48.840Z,90.80
2023-02-02T11:24:23.801Z,91.12
2023-02-02T11:26:59.988Z,91.20
2023-02-02T11:29:32.624Z,91.46
2023-02-02T11:32:35.405Z,91.20
2023-02-02T11:35:08.228Z,91.17
2023-02-02T11:37:39.018Z,91.69
2023-02-02T11:40:28.502Z,91.56
2023-02-02T11:43:01.080Z,91.98
2023-02-02T11:45:37.539Z,91.51
2023-02-02T11:48:13.118Z,92.21
2023-02-02T11:50:47.918Z,91.92
2023-02-02T11:53:33.204Z,92.14
2023-02-02T11:56:04.589Z,91.87
2023-02-02T11:58:46.696Z,91.78
2023-02-02T12:01:27.180Z,93.98
2023-02-02T12:03:59.660Z,92.37
2023-02-02T12:06:34.011Z,92.21
2023-02-02T12:09:12.143Z,92.51
2023-02-02T12:11:59.270Z,92.43
2023-02-02T12:14:47.724Z,92.35
2023-02-02T12:17:26.496Z,92.25
2023-02-02T12:20:09.963Z,92.16
2023-02-02T12:22:56.711Z,92.99
2023-02-02T12:25:32.577Z,92.51
2023-02-02T12:28:33.086Z,92.35
2023-02-02T12:31:15.480Z,92.20
2023-02-02T12:34:17.671Z,92.36
2023-02-02T12:37:10.708Z,92.35
2023-02-02T12:40:03.199Z,91.91
2023-02-02T12:42:41.987Z,91.67
2023-02-02T12:45:17.074Z,91.54
2023-02-02T12:48:10.919Z,92.46
2023-02-02T12:51:06.303Z,91.83
2023-02-02T12:54:35.173Z,92.16
2023-02-02T12:57:22.107Z,91.78
2023-02-02T13:00:00.500Z,91.31
2023-02-02T13:02:44.675Z,90.99
2023-02-02T13:05:23.416Z,90.87
2023-02-02T13:07:53.258Z,90.84
2023-02-02T13:10:34.260Z,90.76
2023-02-02T13:13:17.774Z,90.38
2023-02-02T13:15:45.786Z,90.56
2023-02-02T13:18:23.101Z,90.53
2023-02-02T13:20:54.340Z,90.50
2023-02-02T13:23:28.783Z,90.34
2023-02-02T13:26:05.173Z,90.14
2023-02-02T13:28:52.960Z,90.14
2023-02-02T13:31:25.633Z,90.21
2023-02-02T13:34:07.641Z,89.85
2023-02-02T13:36:37.477Z,90.37
2023-02-02T13:39:15.210Z,89.41
2023-02-02T13:41:42.083Z,89.56
2023-02-02T13:44:22.000Z,89.33
2023-02-02T13:47:00.228Z,89.61
2023-02-02T13:49:34.551Z,89.18
2023-02-02T13:52:14.889Z,89.12
2023-02-02T13:54:59.938Z,88.89
2023-02-02T13:57:32.368Z,89.25
2023-02-02T14:00:13.834Z,88.94
2023-02-02T14:02:50.436Z,88.82
2023-02-02T14:05:22.121Z,88.74
2023-02-02T14:07:49.506Z,89.02
2023-02-02T14:10:25.639Z,88.53
2023-02-02T14:12:52.911Z,88.70
2023-02-02T14:15:19.926Z,88.60
2023-02-02T14:17:47.180Z,88.59
2023-02-02T14:20:48.831Z,87.79
2023-02-02T14:23:51.083Z,88.06
2023-02-02T14:26:21.763Z,88.41
2023-02-02T14:28:51.247Z,88.30
2023-02-02T14:31:27.081Z,88.27
2023-02-02T14:34:28.641Z,87.93
2023-02-02T14:36:59.627Z,88.24
2023-02-02T14:39:30.077Z,88.21
2023-02-02T14:42:36.812Z,88.02
2023-02-02T14:45:28.342Z,87.72
2023-02-02T14:47:59.693Z,88.04
2023-02-02T14:50:45.871Z,87.72
2023-02-02T14:53:13.124Z,88.17
2023-02-02T14:55:55.260Z,87.78
2023-02-02T14:58:41.135Z,87.74
2023-02-02T15:01:25.992Z,87.50
2023-02-02T15:04:15.659Z,87.83
2023-02-02T15:06:43.064Z,87.88
2023-02-02T15:09:28.318Z,87.52
2023-02-02T15:12:08.744Z,87.34
2023-02-02T15:14:35.392Z,87.70
2023-02-02T15:17:05.916Z,87.67
2023-02-02T15:19:37.907Z,87.69
2023-02-02T15:22:44.180Z,87.54
2023-02-02T15:25:21.715Z,87.67
2023-02-02T15:28:19.101Z,87.42
2023-02-02T15:30:49.397Z,87.68
2023-02-02T15:33:41.305Z,87.58
2023-02-02T15:36:16.431Z,87.90
2023-02-02T15:38:43.787Z,88.00
2023-02-02T15:41:21.666Z,87.60
2023-02-02T15:43:48.491Z,87.62
2023-02-02T15:46:24.529Z,87.55
2023-02-02T15:49:35.777Z,87.44
2023-02-02T15:52:11.485Z,87.41
2023-02-02T15:54:38.258Z,87.68
2023-02-02T15:57:42.253Z,87.48
2023-02-02T16:00:20.815Z,87.45
2023-02-02T16:02:50.808Z,87.63
2023-02-02T16:05:39.973Z,87.37
2023-02-02T16:08:25.237Z,87.20
2023-02-02T16:11:02.129Z,87.13
2023-02-02T16:13:30.050Z,87.31
2023-02-02T16:15:59.102Z,87.42
2023-02-02T16:18:25.788Z,87.25
2023-02-02T16:20:53.542Z,87.14
2023-02-02T16:23:29.100Z,86.98
2023-02-02T16:25:58.824Z,86.82
2023-02-02T16:28:25.623Z,86.92
2023-02-02T16:30:52.886Z,86.82
2023-02-02T16:33:41.567Z,86.59
2023-02-02T16:36:25.953Z,86.65
2023-02-02T16:38:54.221Z,86.82
2023-02-02T16:44:37.986Z,86.50
2023-02-02T16:47:08.847Z,86.47
2023-02-02T16:49:35.945Z,86.46
2023-02-02T16:52:13.304Z,86.06
2023-02-02T16:54:45.146Z,86.19
2023-02-02T16:57:27.463Z,85.70
2023-02-02T16:59:56.791Z,85.95
2023-02-02T17:02:30.082Z,85.53
2023-02-02T17:05:21.066Z,86.03
2023-02-02T17:07:50.571Z,85.84
2023-02-02T17:10:17.227Z,85.98
2023-02-02T17:12:45.345Z,86.14
2023-02-02T17:15:17.891Z,86.04
2023-02-02T17:17:47.725Z,86.27
2023-02-02T17:20:15.654Z,86.20
2023-02-02T17:22:44.994Z,86.54
2023-02-02T17:25:19.815Z,86.47
2023-02-02T17:27:46.688Z,86.49
2023-02-02T17:30:16.366Z,86.42
2023-02-02T17:32:43.062Z,85.77
2023-02-02T17:35:19.163Z,85.67
2023-02-02T17:37:46.076Z,86.35
2023-02-02T17:40:16.767Z,86.49
2023-02-02T17:42:44.965Z,86.57
2023-02-02T17:45:35.717Z,86.62
2023-02-02T17:48:03.529Z,86.84
2023-02-02T17:50:31.555Z,86.91
2023-02-02T17:52:58.648Z,87.20
2023-02-02T17:55:34.624Z,86.99
2023-02-02T17:58:01.482Z,87.05
2023-02-02T18:00:31.170Z,87.04
2023-02-02T18:03:41.666Z,87.02
2023-02-02T18:06:10.771Z,87.10
2023-02-02T18:08:37.564Z,87.23
2023-02-02T18:11:04.395Z,87.34
2023-02-02T18:13:31.219Z,87.11
2023-02-02T18:15:59.527Z,87.03
2023-02-02T18:18:27.413Z,86.95
2023-02-02T18:20:54.221Z,87.11
2023-02-02T18:23:21.512Z,87.11
2023-02-02T18:25:48.351Z,86.67
2023-02-02T18:28:17.316Z,86.94
2023-02-02T18:30:45.607Z,86.70
2023-02-02T18:33:13.619Z,86.69
2023-02-02T18:35:44.429Z,86.56
2023-02-02T18:38:11.327Z,86.54
2023-02-02T18:40:38.304Z,86.66
2023-02-02T18:43:05.037Z,86.57
2023-02-02T18:45:31.761Z,86.60
2023-02-02T18:47:58.532Z,86.67
2023-02-02T18:50:25.344Z,86.21
2023-02-02T18:52:52.058Z,86.27
2023-02-02T18:55:18.790Z,86.46
2023-02-02T18:57:45.522Z,86.32
2023-02-02T19:00:12.795Z,86.45
2023-02-02T19:02:39.587Z,86.35
2023-02-02T19:05:25.891Z,86.47
2023-02-02T19:07:55.810Z,86.27
2023-02-02T19:10:24.437Z,86.41
2023-02-02T19:12:59.204Z,86.26
2023-02-02T19:15:26.784Z,86.32
2023-02-02T19:17:55.226Z,86.84
2023-02-02T19:20:29.556Z,86.29
2023-02-02T19:23:11.422Z,86.34
2023-02-02T19:25:40.860Z,86.39
2023-02-02T19:28:28.238Z,86.50
2023-02-02T19:30:57.274Z,86.42
2023-02-02T19:33:29.923Z,86.21
2023-02-02T19:35:56.629Z,86.43
2023-02-02T19:38:26.144Z,86.04
2023-02-02T19:40:52.902Z,86.10
2023-02-02T19:43:25.064Z,85.96
2023-02-02T19:45:52.548Z,86.03
2023-02-02T19:48:23.490Z,86.01
2023-02-02T19:50:50.297Z,85.99
2023-02-02T19:53:23.219Z,85.82
2023-02-02T19:55:51.033Z,86.09
2023-02-02T19:58:20.639Z,85.75
2023-02-02T20:00:48.399Z,86.02
2023-02-02T20:03:42.817Z,85.84
2023-02-02T20:06:17.096Z,85.53
2023-02-02T20:08:43.965Z,85.66
2023-02-02T20:11:23.390Z,85.55
2023-02-02T20:13:50.755Z,85.77
2023-02-02T20:16:22.764Z,85.11
2023-02-02T20:18:57.129Z,85.18
2023-02-02T20:21:32.475Z,85.23
2023-02-02T20:23:59.227Z,85.18
2023-02-02T20:26:38.402Z,84.93
2023-02-02T20:29:20.137Z,84.80
2023-02-02T20:31:47.940Z,85.34
2023-02-02T20:34:24.673Z,85.11
2023-02-02T20:36:53.819Z,85.30
2023-02-02T20:39:32.774Z,84.97
2023-02-02T20:41:59.821Z,85.61
2023-02-02T20:44:28.031Z,85.23
2023-02-02T20:46:55.928Z,85.05
2023-02-02T20:49:25.570Z,85.07
2023-02-02T20:51:56.624Z,84.94
2023-02-02T20:54:24.748Z,84.99
2023-02-02T20:56:52.223Z,85.01
2023-02-02T20:59:20.151Z,85.24
2023-02-02T21:01:47.504Z,85.05
2023-02-02T21:04:14.188Z,85.27
2023-02-02T21:06:41.087Z,85.43
2023-02-02T21:09:09.215Z,85.63
2023-02-02T21:11:35.907Z,85.57
2023-02-02T21:14:02.790Z,86.17
2023-02-02T21:16:29.570Z,86.18
2023-02-02T21:18:57.118Z,86.05
2023-02-02T21:21:24.325Z,86.19
2023-02-02T21:23:51.633Z,86.22
2023-02-02T21:26:20.548Z,86.56
2023-02-02T21:28:47.487Z,86.31
2023-02-02T21:31:16.715Z,86.24
2023-02-02T21:33:44.678Z,86.43
2023-02-02T21:36:14.429Z,86.64
2023-02-02T21:38:41.143Z,86.52
2023-02-02T21:41:16.961Z,86.81
2023-02-02T21:43:43.774Z,86.89
2023-02-02T21:46:35.549Z,87.04
2023-02-02T21:49:02.698Z,86.80
2023-02-02T21:51:34.940Z,86.92
2023-02-02T21:54:16.237Z,86.80
2023-02-02T21:56:43.279Z,87.17
2023-02-02T21:59:16.329Z,87.08
2023-02-02T22:01:43.534Z,86.93
2023-02-02T22:04:29.085Z,87.14
2023-02-02T22:07:12.971Z,87.06
2023-02-02T22:09:41.773Z,87.01
2023-02-02T22:12:20.841Z,86.91
2023-02-02T22:14:48.976Z,86.95
2023-02-02T22:17:22.927Z,86.74
2023-02-02T22:20:15.602Z,86.75
2023-02-02T22:22:47.512Z,86.88
2023-02-02T22:25:17.288Z,86.65
2023-02-02T22:27:54.898Z,86.57
2023-02-02T22:30:37.419Z,86.42
2023-02-02T22:33:05.723Z,86.60
2023-02-02T22:35:33.410Z,86.22
2023-02-02T22:38:00.635Z,86.23
2023-02-02T22:40:27.726Z,86.16
2023-02-02T22:42:57.051Z,86.17
2023-02-02T22:45:23.747Z,85.99
2023-02-02T22:47:51.055Z,85.93
2023-02-02T22:50:19.964Z,85.83
2023-02-02T22:52:46.945Z,85.64
2023-02-02T22:55:14.201Z,85.54
2023-02-02T22:57:41.010Z,85.66
2023-02-02T23:00:13.860Z,85.36
2023-02-02T23:02:41.203Z,85.41
2023-02-02T23:05:10.648Z,85.21
2023-02-02T23:07:37.985Z,85.40
2023-02-02T23:10:05.798Z,85.01
2023-02-02T23:12:32.986Z,84.94
2023-02-02T23:14:59.712Z,84.76
2023-02-02T23:17:26.483Z,84.75
2023-02-02T23:19:53.138Z,84.52
2023-02-02T23:22:19.829Z,84.49
2023-02-02T23:24:46.513Z,84.46
2023-02-02T23:27:13.276Z,84.54
2023-02-02T23:29:39.933Z,84.60
2023-02-02T23:32:07.066Z,84.58
2023-02-02T23:34:33.950Z,84.52
2023-02-02T23:37:00.705Z,84.32
2023-02-02T23:39:27.446Z,84.31
2023-02-02T23:41:54.200Z,84.10
2023-02-02T23:44:21.004Z,83.96
2023-02-02T23:46:47.998Z,84.14
2023-02-02T23:49:14.667Z,84.11
2023-02-02T23:51:41.533Z,84.06
2023-02-02T23:54:10.121Z,83.83
2023-02-02T23:56:37.240Z,83.72
2023-02-02T23:59:03.982Z,83.99
